createdAt,value
2018-12-17T07:30:38.539Z,51.50
2018-12-17T07:33:06.770Z,44.30
2018-12-17T07:35:35.018Z,42.30
2018-12-17T07:38:03.248Z,46.27
2018-12-17T07:40:31.569Z,45.17
2018-12-17T07:43:00.612Z,45.43
2018-12-17T07:45:28.863Z,41.87
2018-12-17T07:47:57.078Z,41.70
2018-12-17T07:50:25.324Z,47.43
2018-12-17T07:52:53.541Z,48.57
2018-12-17T07:55:21.784Z,47.13
2018-12-17T07:57:50.011Z,43.17
2018-12-17T08:00:18.343Z,46.53
2018-12-17T08:02:46.567Z,48.93
2018-12-17T08:05:14.820Z,62.40
2018-12-17T08:07:44.216Z,52.70
2018-12-17T08:10:12.529Z,52.97
2018-12-17T08:12:40.738Z,48.00
2018-12-17T08:15:09.151Z,56.47
2018-12-17T08:17:37.376Z,61.07
2018-12-17T08:20:05.921Z,60.97
2018-12-17T08:22:34.431Z,49.63
2018-12-17T08:25:02.749Z,50.77
2018-12-17T08:27:31.056Z,51.00
2018-12-17T08:30:03.924Z,47.87
2018-12-17T08:32:29.555Z,46.10
2018-12-17T08:34:57.795Z,45.97
2018-12-17T08:37:26.020Z,41.33
2018-12-17T08:39:54.276Z,44.03
2018-12-17T08:42:22.496Z,42.17
2018-12-17T08:44:50.737Z,50.83
2018-12-17T08:47:18.955Z,48.27
2018-12-17T08:49:47.270Z,45.37
2018-12-17T08:52:15.478Z,42.83
2018-12-17T08:54:44.103Z,44.10
2018-12-17T08:57:12.316Z,44.17
2018-12-17T08:59:40.549Z,44.67
2018-12-17T09:02:08.864Z,46.03
2018-12-17T09:04:37.166Z,43.17
2018-12-17T09:07:05.512Z,43.53
2018-12-17T09:09:33.731Z,42.77
2018-12-17T09:12:02.056Z,45.83
2018-12-17T09:14:30.281Z,46.90
2018-12-17T09:16:58.528Z,42.33
2018-12-17T09:19:26.752Z,43.30
2018-12-17T09:21:55.150Z,38.73
2018-12-17T09:24:23.453Z,42.33
2018-12-17T09:26:51.780Z,44.43
2018-12-17T09:29:20.007Z,45.67
2018-12-17T09:31:48.335Z,42.30
2018-12-17T09:34:16.563Z,43.03
2018-12-17T09:36:44.809Z,48.10
2018-12-17T09:39:13.019Z,41.17
2018-12-17T09:41:41.263Z,42.77
2018-12-17T09:44:09.492Z,41.13
2018-12-17T09:46:37.812Z,42.37
2018-12-17T09:49:06.202Z,46.43
2018-12-17T09:51:34.429Z,44.67
2018-12-17T09:54:02.736Z,41.23
2018-12-17T09:56:30.976Z,46.27
2018-12-17T09:58:59.201Z,47.33
2018-12-17T10:01:27.510Z,46.97
2018-12-17T10:03:55.731Z,45.40
2018-12-17T10:06:24.041Z,45.53
2018-12-17T10:08:52.278Z,46.13
2018-12-17T10:11:20.510Z,46.97
2018-12-17T10:13:48.723Z,48.90
2018-12-17T10:16:17.039Z,45.30
2018-12-17T10:18:45.261Z,50.83
2018-12-17T10:21:13.505Z,48.17
2018-12-17T10:23:41.728Z,47.97
2018-12-17T10:26:10.057Z,44.23
2018-12-17T10:28:38.279Z,44.97
2018-12-17T10:31:06.510Z,48.27
2018-12-17T10:33:34.726Z,49.77
2018-12-17T10:36:02.968Z,52.97
2018-12-17T10:38:31.183Z,49.33
2018-12-17T10:40:59.424Z,52.00
2018-12-17T10:43:27.645Z,47.33
2018-12-17T10:45:55.854Z,51.97
2018-12-17T10:48:24.080Z,49.17
2018-12-17T10:50:52.380Z,50.27
2018-12-17T10:53:20.648Z,49.93
2018-12-17T10:55:48.872Z,52.93
2018-12-17T10:58:17.115Z,45.37
2018-12-17T11:00:50.748Z,50.00
2018-12-17T11:03:23.231Z,51.17
2018-12-17T11:05:53.089Z,50.23
2018-12-17T11:08:21.402Z,51.33
2018-12-17T11:10:49.627Z,46.77
2018-12-17T11:13:17.858Z,48.50
2018-12-17T11:15:46.075Z,51.27
2018-12-17T11:18:14.401Z,49.43
2018-12-17T11:20:42.632Z,47.20
2018-12-17T11:23:10.875Z,51.40
2018-12-17T11:25:39.085Z,46.27
2018-12-17T11:28:07.318Z,46.23
2018-12-17T11:30:35.539Z,50.97
2018-12-17T11:33:03.849Z,47.33
2018-12-17T11:35:32.061Z,49.23
2018-12-17T11:38:00.378Z,54.50
2018-12-17T11:40:28.760Z,45.23
2018-12-17T11:42:57.008Z,48.83
2018-12-17T11:45:25.515Z,55.77
2018-12-17T11:47:53.848Z,50.57
2018-12-17T11:50:22.068Z,54.20
2018-12-17T11:52:50.344Z,48.03
2018-12-17T11:55:18.550Z,50.37
2018-12-17T11:58:10.162Z,48.33
2018-12-17T12:00:39.887Z,47.00
2018-12-17T12:03:08.202Z,46.73
2018-12-17T12:05:36.422Z,51.33
2018-12-17T12:08:04.678Z,58.60
2018-12-17T12:10:32.987Z,46.77
2018-12-17T12:13:01.211Z,53.17
2018-12-17T12:15:29.438Z,46.60
2018-12-17T12:17:57.648Z,48.97
2018-12-17T12:20:25.877Z,44.43
2018-12-17T12:22:54.090Z,53.23
2018-12-17T12:25:22.463Z,50.23
2018-12-17T12:27:50.684Z,47.37
2018-12-17T12:30:18.909Z,46.50
2018-12-17T12:32:47.215Z,45.77
2018-12-17T12:35:15.944Z,49.93
2018-12-17T12:37:44.259Z,49.37
2018-12-17T12:40:12.588Z,43.80
2018-12-17T12:42:40.889Z,47.50
2018-12-17T12:45:09.295Z,48.87
2018-12-17T12:47:37.525Z,52.30
2018-12-17T12:50:06.558Z,54.83
2018-12-17T12:52:34.781Z,50.37
2018-12-17T12:55:03.099Z,45.87
2018-12-17T12:57:37.708Z,46.90
2018-12-17T13:00:09.656Z,48.03
2018-12-17T13:02:37.888Z,50.80
2018-12-17T13:05:06.229Z,45.60
2018-12-17T13:07:34.556Z,51.47
2018-12-17T13:10:02.972Z,50.20
2018-12-17T13:12:31.191Z,49.00
2018-12-17T13:14:59.436Z,51.27
2018-12-17T13:17:28.451Z,44.80
2018-12-17T13:19:57.158Z,48.10
2018-12-17T13:22:25.411Z,42.90
2018-12-17T13:24:53.650Z,50.17
2018-12-17T13:27:21.863Z,50.90
2018-12-17T13:29:50.187Z,48.40
2018-12-17T13:32:18.425Z,47.67
2018-12-17T13:34:46.669Z,51.70
2018-12-17T13:37:14.892Z,47.67
2018-12-17T13:39:43.106Z,45.43
2018-12-17T13:42:11.344Z,45.80
2018-12-17T13:44:39.613Z,43.27
2018-12-17T13:47:07.928Z,47.97
2018-12-17T13:49:36.152Z,50.23
2018-12-17T13:52:09.711Z,50.17
2018-12-17T13:54:37.955Z,48.07
2018-12-17T13:57:06.198Z,49.43
2018-12-17T13:59:34.424Z,46.03
2018-12-17T14:02:02.657Z,48.50
2018-12-17T14:04:30.875Z,56.33
2018-12-17T14:06:59.144Z,46.00
2018-12-17T14:09:28.213Z,54.20
2018-12-17T14:11:56.444Z,46.63
2018-12-17T14:14:24.674Z,50.43
2018-12-17T14:16:58.438Z,47.97
2018-12-17T14:19:26.658Z,49.60
2018-12-17T14:21:59.547Z,49.17
2018-12-17T14:24:27.771Z,48.33
2018-12-17T14:26:56.011Z,49.30
2018-12-17T14:29:24.235Z,45.63
2018-12-17T14:31:52.577Z,46.53
2018-12-17T14:34:20.802Z,52.60
2018-12-17T14:36:49.038Z,48.63
2018-12-17T14:39:17.335Z,50.73
2018-12-17T14:41:45.563Z,61.37
2018-12-17T14:44:19.322Z,53.67
2018-12-17T14:46:53.076Z,52.07
2018-12-17T14:49:21.293Z,49.47
2018-12-17T14:51:49.541Z,52.73
2018-12-17T14:54:17.751Z,53.27
2018-12-17T14:56:45.977Z,50.70
2018-12-17T14:59:14.196Z,47.03
2018-12-17T15:01:42.442Z,51.83
2018-12-17T15:04:10.659Z,46.83
2018-12-17T15:06:39.064Z,46.27
2018-12-17T15:09:07.715Z,52.70
2018-12-17T15:11:36.022Z,50.23
2018-12-17T15:14:04.344Z,47.77
2018-12-17T15:16:32.570Z,53.00
2018-12-17T15:19:00.819Z,53.27
2018-12-17T15:21:29.039Z,54.33
2018-12-17T15:23:57.407Z,51.20
2018-12-17T15:26:25.810Z,53.20
2018-12-17T15:28:54.046Z,50.37
2018-12-17T15:31:22.266Z,54.03
2018-12-17T15:33:50.618Z,53.87
2018-12-17T15:36:18.839Z,51.00
2018-12-17T15:38:47.066Z,50.73
2018-12-17T15:41:15.287Z,52.13
2018-12-17T15:43:43.522Z,52.20
2018-12-17T15:46:11.738Z,57.07
2018-12-17T15:48:39.970Z,51.73
2018-12-17T15:51:15.011Z,56.03
2018-12-17T15:53:43.240Z,52.00
2018-12-17T15:56:11.455Z,54.50
2018-12-17T15:58:39.686Z,54.00
2018-12-17T16:01:07.904Z,61.27
2018-12-17T16:03:36.145Z,54.17
2018-12-17T16:06:04.456Z,51.13
2018-12-17T16:08:32.715Z,49.67
2018-12-17T16:11:01.005Z,54.20
2018-12-17T16:13:29.337Z,55.63
2018-12-17T16:15:57.636Z,51.23
2018-12-17T16:18:25.954Z,52.00
2018-12-17T16:20:54.176Z,60.40
2018-12-17T16:23:22.417Z,56.63
2018-12-17T16:25:50.725Z,55.43
2018-12-17T16:28:18.955Z,53.87
2018-12-17T16:30:47.187Z,55.47
2018-12-17T16:33:15.425Z,53.23
2018-12-17T16:35:43.643Z,54.83
2018-12-17T16:38:11.888Z,52.00
2018-12-17T16:40:40.188Z,46.73
2018-12-17T16:43:08.415Z,53.37
2018-12-17T16:45:36.738Z,54.77
2018-12-17T16:48:05.127Z,53.43
2018-12-17T16:50:33.445Z,50.90
2018-12-17T16:53:01.668Z,49.50
2018-12-17T16:55:29.913Z,50.20
2018-12-17T16:57:58.139Z,50.80
2018-12-17T17:00:26.391Z,48.87
2018-12-17T17:02:54.616Z,52.47
2018-12-17T17:05:22.863Z,52.93
2018-12-17T17:07:51.103Z,49.37
2018-12-17T17:10:19.342Z,47.00
2018-12-17T17:12:47.602Z,52.90
2018-12-17T17:15:15.855Z,49.00
2018-12-17T17:17:44.079Z,48.17
2018-12-17T17:20:12.404Z,47.27
2018-12-17T17:22:40.636Z,45.83
2018-12-17T17:25:09.064Z,47.57
2018-12-17T17:27:37.460Z,53.17
2018-12-17T17:30:06.490Z,48.83
2018-12-17T17:32:34.715Z,60.37
2018-12-17T17:35:03.042Z,59.87
2018-12-17T17:37:31.334Z,59.20
2018-12-17T17:39:59.563Z,55.57
2018-12-17T17:42:27.823Z,51.43
2018-12-17T17:44:56.042Z,51.73
2018-12-17T17:47:24.275Z,57.07
2018-12-17T17:49:52.497Z,54.63
2018-12-17T17:52:20.743Z,52.43
2018-12-17T17:54:48.959Z,54.47
2018-12-17T17:57:17.196Z,57.60
2018-12-17T17:59:45.507Z,61.57
2018-12-17T18:02:18.695Z,59.63
2018-12-17T18:04:44.065Z,57.60
2018-12-17T18:07:12.337Z,55.20
2018-12-17T18:09:40.558Z,46.50
2018-12-17T18:12:08.810Z,50.17
2018-12-17T18:14:37.042Z,51.67
2018-12-17T18:17:05.274Z,52.40
2018-12-17T18:19:33.488Z,64.93
2018-12-17T18:22:01.810Z,59.53
2018-12-17T18:24:30.166Z,50.73
2018-12-17T18:26:58.408Z,54.80
2018-12-17T18:29:26.636Z,51.37
2018-12-17T18:31:54.868Z,51.90
2018-12-17T18:34:23.090Z,55.03
2018-12-17T18:36:51.487Z,59.77
2018-12-17T18:39:20.069Z,62.17
2018-12-17T18:41:48.469Z,55.63
2018-12-17T18:44:16.692Z,51.83
2018-12-17T18:46:44.937Z,50.90
2018-12-17T18:49:13.248Z,48.80
2018-12-17T18:51:41.472Z,48.20
2018-12-17T18:54:09.714Z,56.17
2018-12-17T18:56:37.940Z,50.23
2018-12-17T18:59:06.201Z,57.77
2018-12-17T19:01:34.504Z,56.97
2018-12-17T19:04:02.748Z,59.33
2018-12-17T19:06:30.963Z,53.23
2018-12-17T19:08:59.304Z,51.63
2018-12-17T19:11:27.519Z,52.17
2018-12-17T19:13:55.750Z,57.07
2018-12-17T19:16:23.976Z,62.13
2018-12-17T19:18:52.229Z,55.93
2018-12-17T19:21:20.547Z,53.07
2018-12-17T19:23:48.875Z,50.83
2018-12-17T19:26:17.116Z,55.07
2018-12-17T19:28:45.366Z,53.30
2018-12-17T19:31:13.573Z,47.73
2018-12-17T19:33:41.815Z,53.13
2018-12-17T19:36:10.040Z,56.57
2018-12-17T19:38:38.280Z,54.63
2018-12-17T19:41:06.504Z,54.73
2018-12-17T19:43:34.753Z,51.53
2018-12-17T19:46:03.128Z,55.00
2018-12-17T19:48:31.371Z,53.77
2018-12-17T19:50:59.591Z,52.83
2018-12-17T19:53:27.825Z,55.07
2018-12-17T19:55:56.045Z,62.03
2018-12-17T19:58:24.370Z,57.17
2018-12-17T20:00:52.596Z,55.60
2018-12-17T20:03:21.032Z,54.10
2018-12-17T20:05:49.251Z,55.53
2018-12-17T20:08:17.496Z,57.33
2018-12-17T20:10:45.815Z,57.77
2018-12-17T20:13:14.039Z,55.13
2018-12-17T20:15:42.280Z,58.77
2018-12-17T20:18:10.583Z,58.50
2018-12-17T20:20:38.823Z,55.70
2018-12-17T20:23:07.039Z,56.47
2018-12-17T20:25:35.349Z,60.87
2018-12-17T20:28:03.658Z,53.83
2018-12-17T20:30:31.912Z,52.37
2018-12-17T20:33:00.137Z,56.00
2018-12-17T20:35:28.445Z,55.43
2018-12-17T20:37:56.755Z,52.90
2018-12-17T20:40:24.996Z,58.33
2018-12-17T20:42:53.308Z,58.47
2018-12-17T20:45:21.618Z,53.07
2018-12-17T20:47:49.927Z,54.47
2018-12-17T20:50:18.171Z,55.53
2018-12-17T20:52:46.378Z,60.57
2018-12-17T20:55:14.598Z,56.23
2018-12-17T20:57:42.817Z,57.83
2018-12-17T21:00:11.147Z,58.73
2018-12-17T21:02:39.366Z,56.07
2018-12-17T21:05:07.691Z,61.73
2018-12-17T21:07:36.038Z,58.30
2018-12-17T21:10:04.958Z,60.90
2018-12-17T21:12:33.174Z,60.77
2018-12-17T21:15:01.470Z,67.10
2018-12-17T21:17:31.067Z,69.77
2018-12-17T21:19:59.524Z,97.73
2018-12-17T21:22:27.763Z,96.13
2018-12-17T21:24:56.028Z,88.63
2018-12-17T21:27:24.355Z,93.47
2018-12-17T21:29:52.565Z,66.77
2018-12-17T21:32:20.804Z,54.30
2018-12-17T21:34:49.035Z,58.83
2018-12-17T21:37:17.263Z,54.67
2018-12-17T21:39:45.487Z,57.03
2018-12-17T21:42:13.723Z,57.30
